Cottonwood Airport (P52)
Cottonwood, AZ
Field Elevation: 3562
Lat: 34°43.80N  Long: 112°02.10W
CTAF/Unicom Freq: 122.7000
   
    
Weather Advisories
10/21/2014 18:19 Z
Altimeter 30.04" Hg
Wind --
Gusts --
Visibility 10 SM
Temperature 22° C (72° F)
Dewpoint 7° C (45° F)
Relative Humidity 38%
Density Altitude 5,000 feet
Condensation Altitude 11,100 feet
  Wind and Runways
History
 
 
More Info
All DigiWx sites map
NOAA Forecast
 
Airport IQ 5010
 
about DigiWx
 
FAA Disclaimer: The data displayed is for advisory purposes only and is not to be used for flight planning or operations. For official data, please call (not available) to hear the current automated AWOS voice message.
  METAR P52 211819Z AUTO 090999KT 10SM 22/07 A3004